createdAt,value
2018-01-05T00:00:56.850Z,1.90
2018-01-05T00:01:56.673Z,1.70
2018-01-05T00:03:49.938Z,2.40
2018-01-05T00:04:49.847Z,2.10
2018-01-05T00:06:43.124Z,2.10
2018-01-05T00:07:43.035Z,2.20
2018-01-05T00:09:36.391Z,1.90
2018-01-05T00:10:36.320Z,2.60
2018-01-05T00:12:29.706Z,2.10
2018-01-05T00:13:29.505Z,2.30
2018-01-05T00:15:22.769Z,2.40
2018-01-05T00:16:22.703Z,2.80
2018-01-05T00:18:15.968Z,2.20
2018-01-05T00:19:15.883Z,2.30
2018-01-05T00:21:09.136Z,2.10
2018-01-05T00:22:09.068Z,2.20
2018-01-05T00:24:02.458Z,2.10
2018-01-05T00:25:02.312Z,2.10
2018-01-05T00:26:55.590Z,2.40
2018-01-05T00:27:55.502Z,1.70
2018-01-05T00:29:49.749Z,1.90
2018-01-05T00:30:49.678Z,2.20
2018-01-05T00:32:42.955Z,2.30
2018-01-05T00:33:42.866Z,2.20
2018-01-05T00:35:36.234Z,2.20
2018-01-05T00:36:36.066Z,2.10
2018-01-05T00:38:29.401Z,2.30
2018-01-05T00:39:29.318Z,2.20
2018-01-05T00:41:23.568Z,2.20
2018-01-05T00:42:23.501Z,2.20
2018-01-05T00:44:16.802Z,2.50
2018-01-05T00:45:16.686Z,2.50
2018-01-05T00:47:09.962Z,2.70
2018-01-05T00:48:09.872Z,2.50
2018-01-05T00:50:03.124Z,2.80
2018-01-05T00:51:03.052Z,2.80
2018-01-05T00:52:56.320Z,2.40
2018-01-05T00:53:56.229Z,2.50
2018-01-05T00:55:49.490Z,2.70
2018-01-05T00:56:49.418Z,3.00
2018-01-05T00:58:42.697Z,2.50
2018-01-05T00:59:42.602Z,2.40
2018-01-05T01:01:35.862Z,2.90
2018-01-05T01:02:35.794Z,2.70
2018-01-05T01:04:29.077Z,2.50
2018-01-05T01:05:28.984Z,2.10
2018-01-05T01:07:23.261Z,2.60
2018-01-05T01:08:23.176Z,2.60
2018-01-05T01:10:16.419Z,2.40
2018-01-05T01:11:16.349Z,2.60
2018-01-05T01:13:09.632Z,2.40
2018-01-05T01:14:09.544Z,2.50
2018-01-05T01:16:02.800Z,2.50
2018-01-05T01:17:02.749Z,2.70
2018-01-05T01:18:56.001Z,2.20
2018-01-05T01:19:55.909Z,1.90
2018-01-05T01:21:49.276Z,1.90
2018-01-05T01:22:49.098Z,1.70
2018-01-05T01:24:42.372Z,2.30
2018-01-05T01:25:42.287Z,2.10
2018-01-05T01:27:35.563Z,1.90
2018-01-05T01:28:35.477Z,1.70
2018-01-05T01:30:28.737Z,2.10
2018-01-05T01:31:28.665Z,2.50
2018-01-05T01:33:21.944Z,1.80
2018-01-05T01:34:21.851Z,1.90
2018-01-05T01:36:15.107Z,2.80
2018-01-05T01:37:15.039Z,2.00
2018-01-05T01:39:08.317Z,2.30
2018-01-05T01:40:08.227Z,2.30
2018-01-05T01:42:01.484Z,1.90
2018-01-05T01:43:01.416Z,2.30
2018-01-05T01:44:54.692Z,2.10
2018-01-05T01:45:54.606Z,2.50
2018-01-05T01:47:47.880Z,2.40
2018-01-05T01:48:47.795Z,2.90
2018-01-05T01:50:41.051Z,2.20
2018-01-05T01:51:40.981Z,2.40
2018-01-05T01:53:34.270Z,2.10
2018-01-05T01:54:34.181Z,2.60
2018-01-05T01:56:27.439Z,2.20
2018-01-05T01:57:27.367Z,2.50
2018-01-05T01:59:20.754Z,2.30
2018-01-05T02:00:20.546Z,2.20
2018-01-05T02:02:13.802Z,2.90
2018-01-05T02:03:13.733Z,3.00
2018-01-05T02:05:07.012Z,2.30
2018-01-05T02:06:06.922Z,2.60
2018-01-05T02:08:01.303Z,2.10
2018-01-05T02:09:01.110Z,2.20
2018-01-05T02:10:54.366Z,2.10
2018-01-05T02:11:54.299Z,2.20
2018-01-05T02:13:47.563Z,2.30
2018-01-05T02:14:47.473Z,2.60
2018-01-05T02:16:40.734Z,2.60
2018-01-05T02:17:40.661Z,1.90
2018-01-05T02:19:33.943Z,2.20
2018-01-05T02:20:33.852Z,1.80
2018-01-05T02:22:27.108Z,2.00
2018-01-05T02:23:27.040Z,2.30
2018-01-05T02:25:20.312Z,2.10
2018-01-05T02:26:20.229Z,2.40
2018-01-05T02:28:13.496Z,2.20
2018-01-05T02:29:13.400Z,1.90
2018-01-05T02:31:06.663Z,2.60
2018-01-05T02:32:06.590Z,2.20
2018-01-05T02:33:59.864Z,1.90
2018-01-05T02:34:59.776Z,2.20
2018-01-05T02:36:53.035Z,1.80
2018-01-05T02:37:52.964Z,2.30
2018-01-05T02:39:46.234Z,1.80
2018-01-05T02:40:46.142Z,2.50
2018-01-05T02:42:39.400Z,2.10
2018-01-05T02:43:39.330Z,2.00
2018-01-05T02:45:32.718Z,2.20
2018-01-05T02:46:32.520Z,1.80
2018-01-05T02:48:25.798Z,1.80
2018-01-05T02:49:25.706Z,1.90
2018-01-05T02:51:18.970Z,2.00
2018-01-05T02:52:18.901Z,1.80
2018-01-05T02:54:12.174Z,2.10
2018-01-05T02:55:12.086Z,2.00
2018-01-05T02:57:05.453Z,2.40
2018-01-05T02:58:05.316Z,2.10
2018-01-05T02:59:58.582Z,2.30
2018-01-05T03:00:58.493Z,1.90
2018-01-05T03:02:51.750Z,2.20
2018-01-05T03:03:51.682Z,1.70
2018-01-05T03:05:44.958Z,2.70
2018-01-05T03:06:44.870Z,1.80
2018-01-05T03:08:39.136Z,2.50
2018-01-05T03:09:39.046Z,2.20
2018-01-05T03:11:32.294Z,2.20
2018-01-05T03:12:32.221Z,2.20
2018-01-05T03:14:25.502Z,1.80
2018-01-05T03:15:25.410Z,1.90
2018-01-05T03:17:18.666Z,1.80
2018-01-05T03:18:18.599Z,2.20
2018-01-05T03:20:11.985Z,1.90
2018-01-05T03:21:11.780Z,1.80
2018-01-05T03:23:05.034Z,1.90
2018-01-05T03:24:04.964Z,2.20
2018-01-05T03:25:58.241Z,2.00
2018-01-05T03:26:58.155Z,2.20
2018-01-05T03:28:51.428Z,1.80
2018-01-05T03:29:51.345Z,1.90
2018-01-05T03:31:44.601Z,2.40
2018-01-05T03:32:44.530Z,2.30
2018-01-05T03:34:37.808Z,2.30
2018-01-05T03:35:37.718Z,2.00
2018-01-05T03:37:30.979Z,2.20
2018-01-05T03:38:30.912Z,2.40
2018-01-05T03:40:24.296Z,2.40
2018-01-05T03:41:24.103Z,2.70
2018-01-05T03:43:17.385Z,2.20
2018-01-05T03:44:17.314Z,2.30
2018-01-05T03:46:10.700Z,2.70
2018-01-05T03:47:10.503Z,2.20
2018-01-05T03:49:03.889Z,2.80
2018-01-05T03:50:03.691Z,3.10
2018-01-05T03:51:56.952Z,2.80
2018-01-05T03:52:56.879Z,2.80
2018-01-05T03:54:50.157Z,2.80
2018-01-05T03:55:50.065Z,2.70
2018-01-05T03:57:43.391Z,2.80
2018-01-05T03:58:43.324Z,2.80
2018-01-05T04:00:36.599Z,2.50
2018-01-05T04:01:36.511Z,2.50
2018-01-05T04:03:29.768Z,2.60
2018-01-05T04:04:29.699Z,2.50
2018-01-05T04:06:22.981Z,2.50
2018-01-05T04:07:22.891Z,2.90
2018-01-05T04:09:16.166Z,2.40
2018-01-05T04:10:16.082Z,2.80
2018-01-05T04:12:09.389Z,2.80
2018-01-05T04:13:09.318Z,3.10
2018-01-05T04:15:02.598Z,2.60
2018-01-05T04:16:02.508Z,2.80
2018-01-05T04:17:55.769Z,2.70
2018-01-05T04:18:55.696Z,2.90
2018-01-05T04:20:49.082Z,2.40
2018-01-05T04:21:48.901Z,2.30
2018-01-05T04:23:42.159Z,2.80
2018-01-05T04:24:42.091Z,2.20
2018-01-05T04:26:36.476Z,2.40
2018-01-05T04:27:36.282Z,2.60
2018-01-05T04:29:29.548Z,1.80
2018-01-05T04:30:29.461Z,2.00
2018-01-05T04:32:22.719Z,2.20
2018-01-05T04:33:22.649Z,2.60
2018-01-05T04:35:16.032Z,2.50
2018-01-05T04:36:15.835Z,3.00
2018-01-05T04:38:09.092Z,2.20
2018-01-05T04:39:09.031Z,2.30
2018-01-05T04:41:02.403Z,2.10
2018-01-05T04:42:02.317Z,2.70
2018-01-05T04:43:55.578Z,2.20
2018-01-05T04:44:55.509Z,2.30
2018-01-05T04:46:48.786Z,2.60
2018-01-05T04:47:48.700Z,2.70
2018-01-05T04:49:41.964Z,3.40
2018-01-05T04:50:41.876Z,3.20
2018-01-05T04:52:35.137Z,2.40
2018-01-05T04:53:35.071Z,2.50
2018-01-05T04:55:28.452Z,2.60
2018-01-05T04:56:28.314Z,2.50
2018-01-05T04:58:22.570Z,2.60
2018-01-05T04:59:22.502Z,2.40
2018-01-05T05:01:15.780Z,2.50
2018-01-05T05:02:15.695Z,3.30
2018-01-05T05:04:08.954Z,2.10
2018-01-05T05:05:08.886Z,2.10
2018-01-05T05:07:02.161Z,2.40
2018-01-05T05:08:02.071Z,2.30
2018-01-05T05:09:55.343Z,1.80
2018-01-05T05:10:55.257Z,2.10
2018-01-05T05:12:48.516Z,2.30
2018-01-05T05:13:48.445Z,1.80
2018-01-05T05:15:41.831Z,2.30
2018-01-05T05:16:41.633Z,2.40
2018-01-05T05:18:34.890Z,2.00
2018-01-05T05:19:34.820Z,2.20
2018-01-05T05:21:28.206Z,2.20
2018-01-05T05:22:28.014Z,2.40
2018-01-05T05:24:21.272Z,3.10
2018-01-05T05:25:21.204Z,3.10
2018-01-05T05:27:14.478Z,2.20
2018-01-05T05:28:14.395Z,2.70
2018-01-05T05:30:07.655Z,2.70
2018-01-05T05:31:07.573Z,2.80
2018-01-05T05:33:00.829Z,3.70
2018-01-05T05:34:00.761Z,2.70
2018-01-05T05:35:54.149Z,2.90
2018-01-05T05:36:53.950Z,3.00
2018-01-05T05:38:47.219Z,3.20
2018-01-05T05:39:47.134Z,3.60
2018-01-05T05:41:40.415Z,3.90
2018-01-05T05:42:40.323Z,3.30
2018-01-05T05:44:33.582Z,3.50
2018-01-05T05:45:33.510Z,3.60
2018-01-05T05:47:26.790Z,3.60
2018-01-05T05:48:26.700Z,3.60
2018-01-05T05:50:20.086Z,3.60
2018-01-05T05:51:19.885Z,4.00
2018-01-05T05:53:13.146Z,3.50
2018-01-05T05:54:13.075Z,3.60
2018-01-05T05:56:06.349Z,4.70
2018-01-05T05:57:06.262Z,3.70
2018-01-05T05:58:59.532Z,4.30
2018-01-05T05:59:59.449Z,4.60
2018-01-05T06:01:52.727Z,4.10
2018-01-05T06:02:52.639Z,4.80
2018-01-05T06:04:45.896Z,4.30
2018-01-05T06:05:45.823Z,4.10
2018-01-05T06:07:39.099Z,4.60
2018-01-05T06:08:39.012Z,4.60
2018-01-05T06:10:32.289Z,4.90
2018-01-05T06:11:32.197Z,4.80
2018-01-05T06:13:25.462Z,5.20
2018-01-05T06:14:25.385Z,4.60
2018-01-05T06:16:18.771Z,4.30
2018-01-05T06:17:18.572Z,4.10
2018-01-05T06:19:11.831Z,3.60
2018-01-05T06:20:11.761Z,4.40
2018-01-05T06:22:05.040Z,4.10
2018-01-05T06:23:04.961Z,4.00
2018-01-05T06:24:58.210Z,4.70
2018-01-05T06:25:58.136Z,4.30
2018-01-05T06:27:51.524Z,4.40
2018-01-05T06:28:51.329Z,3.90
2018-01-05T06:30:44.600Z,4.70
2018-01-05T06:31:44.510Z,5.80
2018-01-05T06:33:37.769Z,4.60
2018-01-05T06:34:37.700Z,4.40
2018-01-05T06:36:31.084Z,4.40
2018-01-05T06:37:30.885Z,4.30
2018-01-05T06:39:24.254Z,4.80
2018-01-05T06:40:24.076Z,4.50
2018-01-05T06:42:17.401Z,4.40
2018-01-05T06:43:17.312Z,4.80
2018-01-05T06:45:10.676Z,4.20
2018-01-05T06:46:10.498Z,4.10
2018-01-05T06:48:04.773Z,3.90
2018-01-05T06:49:04.687Z,4.70
2018-01-05T06:50:58.050Z,4.40
2018-01-05T06:51:57.874Z,4.30
2018-01-05T06:53:51.154Z,3.80
2018-01-05T06:54:51.062Z,4.40
2018-01-05T06:56:44.321Z,3.70
2018-01-05T06:57:44.251Z,3.50
2018-01-05T06:59:37.520Z,3.60
2018-01-05T07:00:37.431Z,3.70
2018-01-05T07:02:30.688Z,3.60
2018-01-05T07:03:30.620Z,4.50
2018-01-05T07:05:25.005Z,4.50
2018-01-05T07:06:24.811Z,3.90
2018-01-05T07:08:18.092Z,4.70
2018-01-05T07:09:18.000Z,5.10
2018-01-05T07:11:11.256Z,4.70
2018-01-05T07:12:11.190Z,4.80
2018-01-05T07:14:04.464Z,4.40
2018-01-05T07:15:04.375Z,4.80
2018-01-05T07:16:58.483Z,5.10
2018-01-05T07:17:58.412Z,5.70
2018-01-05T07:19:51.682Z,4.90
2018-01-05T07:20:51.591Z,4.60
2018-01-05T07:22:44.848Z,3.50
2018-01-05T07:23:44.778Z,3.30
2018-01-05T07:25:38.165Z,3.70
2018-01-05T07:26:37.967Z,3.70
2018-01-05T07:28:31.226Z,3.40
2018-01-05T07:29:31.167Z,3.30
2018-01-05T07:31:24.433Z,3.40
2018-01-05T07:32:24.344Z,3.00
2018-01-05T07:34:17.599Z,2.90
2018-01-05T07:35:17.534Z,3.00
2018-01-05T07:37:10.805Z,3.30
2018-01-05T07:38:10.716Z,3.00
2018-01-05T07:40:04.015Z,3.20
2018-01-05T07:41:03.911Z,3.10
2018-01-05T07:42:57.168Z,2.80
2018-01-05T07:43:57.098Z,2.80
2018-01-05T07:45:50.492Z,3.70
2018-01-05T07:46:50.288Z,3.30
2018-01-05T07:48:43.548Z,3.10
2018-01-05T07:49:43.476Z,3.20
2018-01-05T07:51:36.862Z,3.60
2018-01-05T07:52:36.667Z,3.40
2018-01-05T07:54:30.029Z,3.20
2018-01-05T07:55:29.851Z,3.20
2018-01-05T07:57:23.126Z,3.30
2018-01-05T07:58:23.036Z,3.00
2018-01-05T08:00:16.288Z,2.80
2018-01-05T08:01:16.218Z,2.80
2018-01-05T08:03:09.605Z,3.50
2018-01-05T08:04:09.402Z,3.30
2018-01-05T08:06:02.661Z,3.60
2018-01-05T08:07:02.588Z,3.10
2018-01-05T08:08:55.869Z,3.40
2018-01-05T08:09:55.773Z,3.20
2018-01-05T08:11:49.059Z,3.30
2018-01-05T08:12:48.964Z,3.10
2018-01-05T08:14:42.328Z,3.50
2018-01-05T08:15:42.148Z,3.50
2018-01-05T08:17:35.429Z,3.20
2018-01-05T08:18:35.334Z,3.40
2018-01-05T08:20:28.593Z,3.50
2018-01-05T08:21:28.521Z,3.50
2018-01-05T08:23:21.800Z,3.60
2018-01-05T08:24:21.707Z,3.10
2018-01-05T08:26:14.964Z,3.50
2018-01-05T08:27:14.893Z,3.70
2018-01-05T08:29:08.275Z,3.90
2018-01-05T08:30:08.078Z,3.90
2018-01-05T08:32:01.384Z,3.60
2018-01-05T08:33:01.313Z,3.80
2018-01-05T08:34:54.591Z,3.70
2018-01-05T08:35:54.499Z,3.90
2018-01-05T08:37:47.872Z,3.60
2018-01-05T08:38:47.687Z,3.70
2018-01-05T08:40:40.963Z,3.70
2018-01-05T08:41:40.872Z,3.70
2018-01-05T08:43:34.132Z,3.80
2018-01-05T08:44:34.065Z,4.00
2018-01-05T08:46:27.405Z,3.90
2018-01-05T08:47:27.358Z,3.70
2018-01-05T08:49:20.591Z,3.90
2018-01-05T08:50:20.500Z,3.80
2018-01-05T08:52:13.764Z,4.20
2018-01-05T08:53:13.689Z,4.10
2018-01-05T08:55:06.966Z,3.90
2018-01-05T08:56:06.874Z,3.80
2018-01-05T08:58:00.132Z,3.70
2018-01-05T08:59:00.066Z,3.80
2018-01-05T09:00:53.338Z,3.80
2018-01-05T09:01:53.249Z,3.80
2018-01-05T09:03:46.616Z,3.90
2018-01-05T09:04:46.436Z,4.10
2018-01-05T09:06:39.713Z,3.80
2018-01-05T09:07:39.624Z,3.60
2018-01-05T09:09:32.895Z,3.20
2018-01-05T09:10:32.814Z,3.60
2018-01-05T09:12:26.088Z,3.40
2018-01-05T09:13:25.999Z,3.40
2018-01-05T09:15:19.271Z,3.80
2018-01-05T09:16:19.188Z,3.20
2018-01-05T09:18:12.570Z,3.30
2018-01-05T09:19:12.373Z,3.20
2018-01-05T09:21:05.745Z,3.50
2018-01-05T09:22:05.560Z,3.90
2018-01-05T09:23:58.836Z,3.50
2018-01-05T09:24:58.749Z,3.90
2018-01-05T09:26:52.006Z,3.10
2018-01-05T09:27:51.937Z,3.20
2018-01-05T09:29:45.211Z,3.00
2018-01-05T09:30:45.123Z,3.00
2018-01-05T09:32:38.510Z,3.40
2018-01-05T09:33:38.317Z,3.20
2018-01-05T09:35:31.683Z,2.90
2018-01-05T09:36:31.508Z,3.00
2018-01-05T09:38:24.781Z,2.90
2018-01-05T09:39:24.697Z,3.10
2018-01-05T09:41:18.062Z,2.80
2018-01-05T09:42:17.888Z,2.80
2018-01-05T09:44:11.274Z,2.50
2018-01-05T09:45:11.076Z,2.90
2018-01-05T09:47:04.385Z,2.90
2018-01-05T09:48:04.315Z,2.70
2018-01-05T09:49:57.585Z,2.80
2018-01-05T09:50:57.491Z,2.50
2018-01-05T09:52:51.880Z,2.80
2018-01-05T09:53:51.731Z,3.20
2018-01-05T09:55:45.991Z,2.60
2018-01-05T09:56:45.922Z,2.50
2018-01-05T09:58:39.196Z,2.70
2018-01-05T09:59:39.111Z,2.80
2018-01-05T10:01:32.367Z,2.50
2018-01-05T10:02:32.299Z,3.00
2018-01-05T10:04:25.582Z,2.70
2018-01-05T10:05:25.489Z,2.90
2018-01-05T10:07:18.769Z,2.40
2018-01-05T10:08:18.680Z,2.50
2018-01-05T10:10:11.960Z,2.80
2018-01-05T10:11:11.871Z,2.70
2018-01-05T10:13:05.148Z,3.10
2018-01-05T10:14:05.063Z,3.10
2018-01-05T10:15:58.929Z,3.40
2018-01-05T10:16:58.316Z,3.30
2018-01-05T10:18:51.700Z,3.80
2018-01-05T10:19:51.505Z,3.50
2018-01-05T10:21:44.803Z,3.70
2018-01-05T10:22:44.694Z,3.50
2018-01-05T10:24:37.977Z,3.80
2018-01-05T10:25:37.885Z,3.50
2018-01-05T10:27:31.174Z,3.80
2018-01-05T10:28:31.075Z,3.70
2018-01-05T10:30:24.445Z,3.90
2018-01-05T10:31:24.315Z,4.30
2018-01-05T10:33:17.594Z,3.90
2018-01-05T10:34:17.505Z,4.40
2018-01-05T10:36:10.763Z,3.80
2018-01-05T10:37:10.695Z,3.70
2018-01-05T10:39:03.972Z,4.40
2018-01-05T10:40:03.888Z,4.60
2018-01-05T10:41:57.252Z,4.00
2018-01-05T10:42:57.074Z,4.20
2018-01-05T10:44:50.470Z,4.00
2018-01-05T10:45:50.310Z,3.70
2018-01-05T10:47:43.787Z,5.00
2018-01-05T10:48:43.512Z,5.20
2018-01-05T10:50:36.788Z,4.50
2018-01-05T10:51:36.701Z,3.70
2018-01-05T10:53:29.972Z,4.50
2018-01-05T10:54:29.895Z,4.70
2018-01-05T10:56:23.263Z,4.60
2018-01-05T10:57:23.107Z,4.70
2018-01-05T10:59:16.405Z,4.30
2018-01-05T11:00:16.316Z,3.90
2018-01-05T11:02:09.575Z,5.10
2018-01-05T11:03:09.507Z,5.00
2018-01-05T11:05:02.786Z,4.50
2018-01-05T11:06:02.696Z,6.00
2018-01-05T11:07:56.110Z,4.70
2018-01-05T11:08:55.888Z,4.40
2018-01-05T11:10:50.261Z,4.00
2018-01-05T11:11:50.084Z,3.90
2018-01-05T11:13:43.362Z,4.30
2018-01-05T11:14:43.275Z,4.20
2018-01-05T11:16:36.535Z,4.30
2018-01-05T11:17:36.466Z,4.30
2018-01-05T11:19:29.856Z,3.90
2018-01-05T11:20:29.653Z,3.80
2018-01-05T11:22:22.913Z,3.60
2018-01-05T11:23:22.844Z,3.70
2018-01-05T11:25:16.123Z,4.00
2018-01-05T11:26:16.041Z,4.30
2018-01-05T11:28:09.318Z,3.60
2018-01-05T11:29:09.285Z,4.10
2018-01-05T11:31:02.602Z,3.80
2018-01-05T11:32:02.428Z,3.30
2018-01-05T11:33:55.815Z,3.40
2018-01-05T11:34:55.622Z,3.60
2018-01-05T11:36:48.884Z,3.50
2018-01-05T11:37:48.817Z,3.30
2018-01-05T11:39:42.096Z,3.10
2018-01-05T11:40:42.021Z,3.70
2018-01-05T11:42:35.394Z,2.80
2018-01-05T11:43:35.204Z,2.90
2018-01-05T11:45:28.492Z,2.90
2018-01-05T11:46:28.396Z,3.40
2018-01-05T11:48:21.676Z,2.90
2018-01-05T11:49:21.593Z,3.40
2018-01-05T11:51:14.854Z,3.10
2018-01-05T11:52:14.786Z,3.10
2018-01-05T11:54:08.069Z,3.00
2018-01-05T11:55:07.981Z,3.60
2018-01-05T11:57:01.241Z,3.20
2018-01-05T11:58:01.173Z,3.40
2018-01-05T11:59:54.447Z,3.20
2018-01-05T12:00:54.357Z,3.00
2018-01-05T12:02:47.728Z,3.50
2018-01-05T12:03:47.554Z,3.70
2018-01-05T12:05:40.837Z,3.30
2018-01-05T12:06:40.747Z,2.90
2018-01-05T12:08:34.032Z,3.40
2018-01-05T12:09:33.946Z,3.50
2018-01-05T12:11:27.202Z,3.50
2018-01-05T12:12:27.134Z,3.80
2018-01-05T12:14:20.413Z,3.70
2018-01-05T12:15:20.329Z,3.90
2018-01-05T12:17:13.590Z,3.00
2018-01-05T12:18:13.523Z,3.60
2018-01-05T12:20:06.793Z,3.50
2018-01-05T12:21:06.704Z,3.60
2018-01-05T12:22:59.977Z,3.70
2018-01-05T12:23:59.910Z,3.90
2018-01-05T12:25:53.190Z,3.70
2018-01-05T12:26:53.104Z,3.20
2018-01-05T12:28:46.399Z,3.60
2018-01-05T12:29:46.318Z,3.00
2018-01-05T12:31:39.590Z,3.60
2018-01-05T12:32:39.521Z,3.50
2018-01-05T12:34:32.801Z,3.50
2018-01-05T12:35:32.721Z,3.70
2018-01-05T12:37:25.978Z,3.70
2018-01-05T12:38:25.911Z,4.10
2018-01-05T12:40:19.190Z,4.00
2018-01-05T12:41:19.108Z,4.00
2018-01-05T12:43:12.385Z,3.10
2018-01-05T12:44:12.316Z,3.40
2018-01-05T12:46:05.704Z,3.90
2018-01-05T12:47:05.500Z,3.90
2018-01-05T12:48:58.768Z,3.80
2018-01-05T12:49:58.676Z,3.40
2018-01-05T12:51:51.945Z,3.70
2018-01-05T12:52:51.878Z,3.50
2018-01-05T12:54:45.155Z,3.10
2018-01-05T12:55:45.069Z,3.00
2018-01-05T12:57:38.451Z,4.00
2018-01-05T12:58:38.316Z,3.80
2018-01-05T13:00:31.596Z,3.60
2018-01-05T13:01:31.514Z,3.60
2018-01-05T13:03:24.773Z,3.50
2018-01-05T13:04:24.704Z,3.20
2018-01-05T13:06:17.986Z,3.80
2018-01-05T13:07:17.900Z,3.30
2018-01-05T13:09:11.288Z,3.80
2018-01-05T13:10:11.094Z,3.40
2018-01-05T13:12:04.466Z,3.50
2018-01-05T13:13:04.315Z,3.50
2018-01-05T13:14:57.597Z,3.80
2018-01-05T13:15:57.511Z,3.40
2018-01-05T13:17:50.772Z,4.30
2018-01-05T13:18:50.705Z,4.10
2018-01-05T13:20:43.983Z,4.10
2018-01-05T13:21:43.899Z,3.50
2018-01-05T13:23:37.272Z,3.40
2018-01-05T13:24:37.097Z,3.70
2018-01-05T13:26:30.423Z,4.30
2018-01-05T13:27:30.316Z,3.90
2018-01-05T13:29:23.588Z,4.60
2018-01-05T13:30:23.501Z,4.40
2018-01-05T13:32:16.763Z,4.00
2018-01-05T13:33:16.697Z,4.00
2018-01-05T13:35:09.979Z,4.50
2018-01-05T13:36:09.891Z,4.10
2018-01-05T13:38:03.155Z,4.00
2018-01-05T13:39:03.088Z,4.30
2018-01-05T13:40:56.406Z,3.60
2018-01-05T13:41:56.342Z,3.80
2018-01-05T13:43:49.579Z,4.50
2018-01-05T13:44:49.512Z,4.30
2018-01-05T13:46:42.793Z,4.00
2018-01-05T13:47:42.710Z,4.20
2018-01-05T13:49:35.984Z,4.60
2018-01-05T13:50:35.892Z,3.90
2018-01-05T13:52:29.266Z,4.20
2018-01-05T13:53:29.091Z,4.20
2018-01-05T13:55:22.480Z,4.10
2018-01-05T13:56:22.285Z,4.20
2018-01-05T13:58:15.536Z,4.40
2018-01-05T13:59:15.473Z,4.20
2018-01-05T14:01:08.749Z,4.00
2018-01-05T14:02:08.662Z,4.30
2018-01-05T14:04:01.927Z,3.60
2018-01-05T14:05:01.858Z,4.80
2018-01-05T14:06:55.245Z,3.80
2018-01-05T14:07:55.054Z,4.70
2018-01-05T14:09:48.408Z,4.20
2018-01-05T14:10:48.318Z,4.10
2018-01-05T14:12:41.579Z,3.70
2018-01-05T14:13:41.512Z,3.60
2018-01-05T14:15:34.784Z,3.90
2018-01-05T14:16:34.717Z,4.20
2018-01-05T14:18:27.947Z,3.80
2018-01-05T14:19:27.873Z,3.90
2018-01-05T14:21:21.150Z,4.00
2018-01-05T14:22:21.083Z,3.50
2018-01-05T14:24:14.430Z,3.50
2018-01-05T14:25:14.314Z,3.50
2018-01-05T14:27:07.596Z,3.50
2018-01-05T14:28:07.507Z,3.50
2018-01-05T14:30:00.816Z,4.30
2018-01-05T14:31:00.702Z,4.20
2018-01-05T14:32:53.964Z,4.00
2018-01-05T14:33:53.903Z,4.90
2018-01-05T14:35:47.177Z,4.20
2018-01-05T14:36:47.086Z,3.80
2018-01-05T14:38:40.383Z,3.70
2018-01-05T14:39:40.311Z,4.60
2018-01-05T14:41:33.695Z,3.90
2018-01-05T14:42:33.507Z,3.80
2018-01-05T14:44:26.750Z,3.80
2018-01-05T14:45:26.687Z,4.00
2018-01-05T14:47:20.068Z,4.80
2018-01-05T14:48:19.874Z,3.90
2018-01-05T14:50:13.265Z,4.50
2018-01-05T14:51:13.061Z,4.40
2018-01-05T14:53:06.384Z,4.40
2018-01-05T14:54:06.314Z,4.70
2018-01-05T14:55:59.596Z,4.00
2018-01-05T14:56:59.510Z,3.90
2018-01-05T14:58:52.771Z,4.60
2018-01-05T14:59:52.701Z,4.80
2018-01-05T15:01:45.976Z,4.30
2018-01-05T15:02:45.898Z,4.00
2018-01-05T15:04:39.159Z,4.50
2018-01-05T15:05:39.098Z,4.10
2018-01-05T15:07:32.477Z,3.60
2018-01-05T15:08:32.316Z,3.00
2018-01-05T15:10:25.584Z,3.50
2018-01-05T15:11:25.497Z,4.60
2018-01-05T15:13:18.759Z,4.10
2018-01-05T15:14:18.690Z,3.90
2018-01-05T15:16:11.967Z,3.70
2018-01-05T15:17:11.883Z,4.00
2018-01-05T15:19:05.256Z,4.00
2018-01-05T15:20:05.079Z,3.50
2018-01-05T15:21:58.399Z,3.90
2018-01-05T15:22:58.316Z,3.60
2018-01-05T15:24:51.684Z,3.70
2018-01-05T15:25:51.498Z,3.70
2018-01-05T15:27:44.767Z,4.00
2018-01-05T15:28:44.680Z,4.50
2018-01-05T15:30:37.958Z,4.20
2018-01-05T15:31:37.866Z,4.40
2018-01-05T15:33:31.239Z,3.80
2018-01-05T15:34:31.066Z,4.10
2018-01-05T15:36:24.452Z,5.20
2018-01-05T15:37:24.317Z,4.60
2018-01-05T15:39:17.578Z,4.20
2018-01-05T15:40:17.509Z,4.00
2018-01-05T15:42:10.778Z,4.60
2018-01-05T15:43:10.691Z,5.40
2018-01-05T15:45:03.952Z,3.70
2018-01-05T15:46:03.883Z,3.80
2018-01-05T15:47:57.163Z,4.00
2018-01-05T15:48:57.077Z,3.80
2018-01-05T15:50:50.408Z,3.70
2018-01-05T15:51:50.318Z,3.70
2018-01-05T15:53:43.688Z,4.00
2018-01-05T15:54:43.512Z,3.80
2018-01-05T15:56:36.899Z,5.00
2018-01-05T15:57:36.708Z,4.20
2018-01-05T15:59:30.080Z,3.80
2018-01-05T16:00:29.889Z,3.80
2018-01-05T16:02:23.170Z,4.60
2018-01-05T16:03:23.081Z,4.90
2018-01-05T16:05:16.386Z,4.50
2018-01-05T16:06:16.320Z,3.60
2018-01-05T16:08:09.588Z,4.60
2018-01-05T16:09:09.503Z,5.50
2018-01-05T16:11:02.774Z,4.10
2018-01-05T16:12:02.686Z,4.30
2018-01-05T16:13:55.953Z,4.10
2018-01-05T16:14:55.884Z,4.20
2018-01-05T16:16:50.162Z,4.60
2018-01-05T16:17:50.078Z,4.10
2018-01-05T16:19:43.331Z,4.60
2018-01-05T16:20:43.260Z,4.40
2018-01-05T16:22:36.541Z,4.70
2018-01-05T16:23:36.452Z,4.70
2018-01-05T16:25:29.715Z,4.40
2018-01-05T16:26:29.645Z,4.60
2018-01-05T16:28:22.908Z,4.80
2018-01-05T16:29:22.824Z,5.30
2018-01-05T16:31:16.093Z,3.90
2018-01-05T16:32:16.006Z,4.30
2018-01-05T16:34:09.266Z,4.40
2018-01-05T16:35:09.201Z,4.50
2018-01-05T16:37:02.497Z,4.00
2018-01-05T16:38:02.393Z,4.50
2018-01-05T16:39:55.767Z,5.40
2018-01-05T16:40:55.577Z,5.20
2018-01-05T16:42:49.859Z,4.30
2018-01-05T16:43:49.810Z,4.40
2018-01-05T16:45:43.027Z,4.70
2018-01-05T16:46:42.959Z,4.60
2018-01-05T16:48:37.234Z,4.90
2018-01-05T16:49:37.168Z,4.50
2018-01-05T16:51:30.429Z,4.60
2018-01-05T16:52:30.340Z,4.90
2018-01-05T16:54:23.603Z,5.20
2018-01-05T16:55:23.532Z,5.00
2018-01-05T16:57:16.813Z,4.90
2018-01-05T16:58:16.726Z,5.30
2018-01-05T17:00:09.980Z,4.50
2018-01-05T17:01:09.940Z,4.30
2018-01-05T17:03:03.189Z,4.30
2018-01-05T17:04:03.101Z,4.90
2018-01-05T17:05:56.468Z,4.60
2018-01-05T17:06:56.316Z,4.30
2018-01-05T17:08:49.603Z,4.50
2018-01-05T17:09:49.509Z,4.70
2018-01-05T17:11:42.778Z,4.70
2018-01-05T17:12:42.694Z,4.20
2018-01-05T17:14:36.058Z,4.90
2018-01-05T17:15:35.887Z,4.60
2018-01-05T17:17:29.168Z,4.80
2018-01-05T17:18:29.080Z,4.20
2018-01-05T17:20:22.392Z,4.70
2018-01-05T17:21:22.316Z,4.60
2018-01-05T17:23:15.592Z,4.60
2018-01-05T17:24:15.507Z,4.80
2018-01-05T17:26:08.874Z,4.50
2018-01-05T17:27:08.697Z,4.80
2018-01-05T17:29:02.083Z,4.80
2018-01-05T17:30:01.888Z,4.50
2018-01-05T17:31:55.156Z,4.50
2018-01-05T17:32:55.072Z,4.80
2018-01-05T17:34:48.384Z,4.50
2018-01-05T17:35:48.315Z,4.80
2018-01-05T17:37:41.593Z,4.60
2018-01-05T17:38:41.508Z,4.50
2018-01-05T17:40:34.779Z,5.30
2018-01-05T17:41:34.700Z,4.80
2018-01-05T17:43:28.084Z,5.50
2018-01-05T17:44:27.892Z,4.70
2018-01-05T17:46:21.195Z,5.40
2018-01-05T17:47:21.081Z,5.70
2018-01-05T17:49:14.467Z,5.90
2018-01-05T17:50:14.316Z,5.40
2018-01-05T17:52:07.594Z,4.40
2018-01-05T17:53:07.515Z,4.50
2018-01-05T17:55:00.768Z,5.40
2018-01-05T17:56:00.703Z,5.10
2018-01-05T17:57:53.977Z,4.80
2018-01-05T17:58:53.918Z,4.90
2018-01-05T18:00:47.150Z,4.90
2018-01-05T18:01:47.083Z,5.10
2018-01-05T18:03:40.407Z,5.20
2018-01-05T18:04:40.320Z,5.40
2018-01-05T18:06:33.581Z,5.20
2018-01-05T18:07:33.511Z,6.30
2018-01-05T18:09:26.781Z,5.20
2018-01-05T18:10:26.690Z,5.90
2018-01-05T18:12:20.076Z,5.50
2018-01-05T18:13:19.879Z,6.00
2018-01-05T18:15:13.248Z,5.10
2018-01-05T18:16:13.072Z,5.30
2018-01-05T18:18:06.457Z,4.90
2018-01-05T18:19:06.311Z,5.80
2018-01-05T18:20:59.578Z,5.70
2018-01-05T18:21:59.509Z,4.80
2018-01-05T18:23:52.895Z,5.20
2018-01-05T18:24:52.698Z,5.10
2018-01-05T18:26:45.956Z,4.70
2018-01-05T18:27:45.889Z,5.40
2018-01-05T18:29:39.167Z,5.40
2018-01-05T18:30:39.078Z,6.00
2018-01-05T18:32:32.361Z,5.70
2018-01-05T18:33:32.272Z,5.80
2018-01-05T18:35:25.557Z,5.80
2018-01-05T18:36:25.461Z,6.10
2018-01-05T18:38:18.850Z,5.00
2018-01-05T18:39:18.651Z,5.90
2018-01-05T18:41:12.022Z,5.10
2018-01-05T18:42:11.865Z,4.80
2018-01-05T18:44:05.120Z,6.10
2018-01-05T18:45:05.032Z,5.70
2018-01-05T18:46:58.309Z,5.30
2018-01-05T18:47:58.239Z,5.50
2018-01-05T18:49:51.534Z,6.10
2018-01-05T18:50:51.434Z,5.30
2018-01-05T18:52:44.708Z,5.40
2018-01-05T18:53:44.621Z,5.10
2018-01-05T18:55:37.882Z,5.40
2018-01-05T18:56:37.811Z,5.70
2018-01-05T18:58:31.090Z,5.30
2018-01-05T18:59:31.004Z,5.30
2018-01-05T19:01:24.371Z,5.90
2018-01-05T19:02:24.204Z,5.70
2018-01-05T19:04:17.481Z,5.60
2018-01-05T19:05:17.392Z,5.60
2018-01-05T19:07:10.668Z,5.80
2018-01-05T19:08:10.599Z,5.70
2018-01-05T19:10:03.867Z,6.00
2018-01-05T19:11:03.779Z,5.60
2018-01-05T19:12:57.166Z,5.50